sensor_id;sensor_type;location;lat;lon;timestamp;P1;durP1;ratioP1;P2;durP2;ratioP2
26042;SDS011;13818;52.156;5.382;2023-10-31T00:01:26;0.20;;;0.20;;
26042;SDS011;13818;52.156;5.382;2023-10-31T00:03:52;3.42;;;0.55;;
26042;SDS011;13818;52.156;5.382;2023-10-31T00:06:19;1.10;;;0.40;;
26042;SDS011;13818;52.156;5.382;2023-10-31T00:08:45;0.80;;;0.30;;
26042;SDS011;13818;52.156;5.382;2023-10-31T00:11:12;0.65;;;0.20;;
26042;SDS011;13818;52.156;5.382;2023-10-31T00:13:38;3.85;;;0.40;;
26042;SDS011;13818;52.156;5.382;2023-10-31T00:16:05;0.75;;;0.28;;
26042;SDS011;13818;52.156;5.382;2023-10-31T00:18:33;0.90;;;0.30;;
26042;SDS011;13818;52.156;5.382;2023-10-31T00:20:59;1.13;;;0.10;;
26042;SDS011;13818;52.156;5.382;2023-10-31T00:23:26;1.45;;;0.50;;
26042;SDS011;13818;52.156;5.382;2023-10-31T00:25:52;0.57;;;0.38;;
26042;SDS011;13818;52.156;5.382;2023-10-31T00:28:19;4.30;;;0.90;;
26042;SDS011;13818;52.156;5.382;2023-10-31T00:30:45;0.55;;;0.38;;
26042;SDS011;13818;52.156;5.382;2023-10-31T00:33:12;1.90;;;0.60;;
26042;SDS011;13818;52.156;5.382;2023-10-31T00:35:39;3.70;;;0.80;;
26042;SDS011;13818;52.156;5.382;2023-10-31T00:38:06;2.58;;;0.63;;
26042;SDS011;13818;52.156;5.382;2023-10-31T00:40:32;2.60;;;1.45;;
26042;SDS011;13818;52.156;5.382;2023-10-31T00:42:59;2.08;;;1.45;;
26042;SDS011;13818;52.156;5.382;2023-10-31T00:45:26;3.22;;;1.65;;
26042;SDS011;13818;52.156;5.382;2023-10-31T00:47:52;2.72;;;1.63;;
26042;SDS011;13818;52.156;5.382;2023-10-31T00:50:18;5.03;;;1.90;;
26042;SDS011;13818;52.156;5.382;2023-10-31T00:52:46;4.47;;;2.45;;
26042;SDS011;13818;52.156;5.382;2023-10-31T00:55:13;3.67;;;2.20;;
26042;SDS011;13818;52.156;5.382;2023-10-31T00:57:39;6.78;;;3.00;;
26042;SDS011;13818;52.156;5.382;2023-10-31T01:00:06;4.88;;;2.83;;
26042;SDS011;13818;52.156;5.382;2023-10-31T01:02:35;5.93;;;3.42;;
26042;SDS011;13818;52.156;5.382;2023-10-31T01:05:01;6.65;;;2.15;;
26042;SDS011;13818;52.156;5.382;2023-10-31T01:07:28;5.70;;;2.97;;
26042;SDS011;13818;52.156;5.382;2023-10-31T01:09:55;4.78;;;2.50;;
26042;SDS011;13818;52.156;5.382;2023-10-31T01:12:22;6.95;;;2.63;;
26042;SDS011;13818;52.156;5.382;2023-10-31T01:14:48;4.35;;;2.15;;
26042;SDS011;13818;52.156;5.382;2023-10-31T01:17:15;6.93;;;2.42;;
26042;SDS011;13818;52.156;5.382;2023-10-31T01:19:41;3.53;;;2.05;;
26042;SDS011;13818;52.156;5.382;2023-10-31T01:22:07;4.38;;;2.28;;
26042;SDS011;13818;52.156;5.382;2023-10-31T01:24:34;2.55;;;1.42;;
26042;SDS011;13818;52.156;5.382;2023-10-31T01:27:02;4.32;;;2.55;;
26042;SDS011;13818;52.156;5.382;2023-10-31T01:29:29;3.25;;;1.80;;
26042;SDS011;13818;52.156;5.382;2023-10-31T01:31:55;5.15;;;3.28;;
26042;SDS011;13818;52.156;5.382;2023-10-31T01:34:22;4.15;;;2.42;;
26042;SDS011;13818;52.156;5.382;2023-10-31T01:36:48;10.32;;;2.75;;
26042;SDS011;13818;52.156;5.382;2023-10-31T01:39:15;4.88;;;2.92;;
26042;SDS011;13818;52.156;5.382;2023-10-31T01:41:41;6.40;;;2.47;;
26042;SDS011;13818;52.156;5.382;2023-10-31T01:44:09;5.72;;;2.22;;
26042;SDS011;13818;52.156;5.382;2023-10-31T01:46:36;5.95;;;2.67;;
26042;SDS011;13818;52.156;5.382;2023-10-31T01:49:02;2.47;;;1.90;;
26042;SDS011;13818;52.156;5.382;2023-10-31T01:51:29;4.03;;;1.80;;
26042;SDS011;13818;52.156;5.382;2023-10-31T01:53:56;2.13;;;1.17;;
26042;SDS011;13818;52.156;5.382;2023-10-31T01:56:22;4.25;;;2.03;;
26042;SDS011;13818;52.156;5.382;2023-10-31T01:58:50;2.45;;;1.27;;
26042;SDS011;13818;52.156;5.382;2023-10-31T02:01:20;3.00;;;1.55;;
26042;SDS011;13818;52.156;5.382;2023-10-31T02:03:47;6.30;;;2.03;;
26042;SDS011;13818;52.156;5.382;2023-10-31T02:06:14;6.63;;;2.53;;
26042;SDS011;13818;52.156;5.382;2023-10-31T02:08:40;4.20;;;1.92;;
26042;SDS011;13818;52.156;5.382;2023-10-31T02:11:07;8.75;;;3.03;;
26042;SDS011;13818;52.156;5.382;2023-10-31T02:13:35;4.43;;;2.03;;
26042;SDS011;13818;52.156;5.382;2023-10-31T02:16:02;6.57;;;2.22;;
26042;SDS011;13818;52.156;5.382;2023-10-31T02:18:30;4.38;;;2.25;;
26042;SDS011;13818;52.156;5.382;2023-10-31T02:20:56;3.83;;;2.15;;
26042;SDS011;13818;52.156;5.382;2023-10-31T02:23:24;4.82;;;2.67;;
26042;SDS011;13818;52.156;5.382;2023-10-31T02:25:51;4.45;;;2.22;;
26042;SDS011;13818;52.156;5.382;2023-10-31T02:28:17;6.28;;;2.70;;
26042;SDS011;13818;52.156;5.382;2023-10-31T02:30:43;4.18;;;2.88;;
26042;SDS011;13818;52.156;5.382;2023-10-31T02:33:10;5.53;;;2.70;;
26042;SDS011;13818;52.156;5.382;2023-10-31T02:35:37;7.95;;;3.45;;
26042;SDS011;13818;52.156;5.382;2023-10-31T02:38:03;4.55;;;2.47;;
26042;SDS011;13818;52.156;5.382;2023-10-31T02:40:31;5.57;;;2.67;;
26042;SDS011;13818;52.156;5.382;2023-10-31T02:42:58;6.10;;;3.65;;
26042;SDS011;13818;52.156;5.382;2023-10-31T02:45:24;3.92;;;2.10;;
26042;SDS011;13818;52.156;5.382;2023-10-31T02:47:50;8.52;;;3.17;;
26042;SDS011;13818;52.156;5.382;2023-10-31T02:50:17;5.28;;;2.30;;
26042;SDS011;13818;52.156;5.382;2023-10-31T02:52:43;3.78;;;1.95;;
26042;SDS011;13818;52.156;5.382;2023-10-31T02:55:10;3.33;;;1.77;;
26042;SDS011;13818;52.156;5.382;2023-10-31T02:57:37;5.63;;;2.00;;
26042;SDS011;13818;52.156;5.382;2023-10-31T03:00:04;3.65;;;2.60;;
26042;SDS011;13818;52.156;5.382;2023-10-31T03:02:32;4.03;;;2.40;;
26042;SDS011;13818;52.156;5.382;2023-10-31T03:04:58;4.07;;;1.90;;
26042;SDS011;13818;52.156;5.382;2023-10-31T03:07:24;3.28;;;1.98;;
26042;SDS011;13818;52.156;5.382;2023-10-31T03:09:53;3.30;;;1.70;;
26042;SDS011;13818;52.156;5.382;2023-10-31T03:12:22;2.58;;;1.42;;
26042;SDS011;13818;52.156;5.382;2023-10-31T03:14:50;9.27;;;2.60;;
26042;SDS011;13818;52.156;5.382;2023-10-31T03:17:16;8.75;;;2.25;;
26042;SDS011;13818;52.156;5.382;2023-10-31T03:19:43;2.22;;;1.45;;
26042;SDS011;13818;52.156;5.382;2023-10-31T03:22:09;4.93;;;1.90;;
26042;SDS011;13818;52.156;5.382;2023-10-31T03:24:36;2.60;;;1.42;;
26042;SDS011;13818;52.156;5.382;2023-10-31T03:27:02;6.28;;;2.80;;
26042;SDS011;13818;52.156;5.382;2023-10-31T03:29:29;3.75;;;2.10;;
26042;SDS011;13818;52.156;5.382;2023-10-31T03:31:56;6.70;;;2.03;;
26042;SDS011;13818;52.156;5.382;2023-10-31T03:34:23;5.95;;;1.70;;
26042;SDS011;13818;52.156;5.382;2023-10-31T03:36:49;3.72;;;1.95;;
26042;SDS011;13818;52.156;5.382;2023-10-31T03:39:16;3.03;;;1.75;;
26042;SDS011;13818;52.156;5.382;2023-10-31T03:41:42;4.28;;;1.10;;
26042;SDS011;13818;52.156;5.382;2023-10-31T03:44:08;4.53;;;1.63;;
26042;SDS011;13818;52.156;5.382;2023-10-31T03:46:35;2.88;;;1.20;;
26042;SDS011;13818;52.156;5.382;2023-10-31T03:49:03;2.33;;;1.27;;
26042;SDS011;13818;52.156;5.382;2023-10-31T03:51:32;2.85;;;1.63;;
26042;SDS011;13818;52.156;5.382;2023-10-31T03:53:59;3.85;;;1.20;;
26042;SDS011;13818;52.156;5.382;2023-10-31T03:56:25;3.42;;;0.80;;
26042;SDS011;13818;52.156;5.382;2023-10-31T03:58:52;0.75;;;0.50;;
26042;SDS011;13818;52.156;5.382;2023-10-31T04:01:18;2.03;;;0.60;;
26042;SDS011;13818;52.156;5.382;2023-10-31T04:03:45;2.17;;;0.73;;
26042;SDS011;13818;52.156;5.382;2023-10-31T04:06:12;0.95;;;0.63;;
26042;SDS011;13818;52.156;5.382;2023-10-31T04:08:39;0.70;;;0.57;;
26042;SDS011;13818;52.156;5.382;2023-10-31T04:11:06;0.77;;;0.28;;
26042;SDS011;13818;52.156;5.382;2023-10-31T04:13:32;1.67;;;0.60;;
26042;SDS011;13818;52.156;5.382;2023-10-31T04:15:58;0.57;;;0.28;;
26042;SDS011;13818;52.156;5.382;2023-10-31T04:18:25;2.80;;;0.45;;
26042;SDS011;13818;52.156;5.382;2023-10-31T04:20:51;0.20;;;0.10;;
26042;SDS011;13818;52.156;5.382;2023-10-31T04:23:19;0.45;;;0.25;;
26042;SDS011;13818;52.156;5.382;2023-10-31T04:25:46;0.00;;;0.00;;
26042;SDS011;13818;52.156;5.382;2023-10-31T04:28:12;0.32;;;0.25;;
26042;SDS011;13818;52.156;5.382;2023-10-31T04:30:39;2.83;;;0.10;;
26042;SDS011;13818;52.156;5.382;2023-10-31T04:33:06;1.20;;;0.47;;
26042;SDS011;13818;52.156;5.382;2023-10-31T04:35:32;0.10;;;0.10;;
26042;SDS011;13818;52.156;5.382;2023-10-31T04:37:59;0.35;;;0.20;;
26042;SDS011;13818;52.156;5.382;2023-10-31T04:40:26;0.85;;;0.40;;
26042;SDS011;13818;52.156;5.382;2023-10-31T04:42:53;0.85;;;0.20;;
26042;SDS011;13818;52.156;5.382;2023-10-31T04:45:20;4.82;;;0.47;;
26042;SDS011;13818;52.156;5.382;2023-10-31T04:47:46;0.15;;;0.08;;
26042;SDS011;13818;52.156;5.382;2023-10-31T04:50:15;0.52;;;0.30;;
26042;SDS011;13818;52.156;5.382;2023-10-31T04:52:41;2.50;;;0.38;;
26042;SDS011;13818;52.156;5.382;2023-10-31T04:55:08;3.78;;;0.25;;
26042;SDS011;13818;52.156;5.382;2023-10-31T04:57:36;1.40;;;0.20;;
26042;SDS011;13818;52.156;5.382;2023-10-31T05:00:02;0.20;;;0.20;;
26042;SDS011;13818;52.156;5.382;2023-10-31T05:02:31;0.75;;;0.35;;
26042;SDS011;13818;52.156;5.382;2023-10-31T05:04:58;0.22;;;0.20;;
26042;SDS011;13818;52.156;5.382;2023-10-31T05:07:24;0.45;;;0.30;;
26042;SDS011;13818;52.156;5.382;2023-10-31T05:09:50;0.30;;;0.17;;
26042;SDS011;13818;52.156;5.382;2023-10-31T05:12:17;0.60;;;0.20;;
26042;SDS011;13818;52.156;5.382;2023-10-31T05:14:45;0.10;;;0.10;;
26042;SDS011;13818;52.156;5.382;2023-10-31T05:17:11;0.90;;;0.22;;
26042;SDS011;13818;52.156;5.382;2023-10-31T05:19:37;0.13;;;0.13;;
26042;SDS011;13818;52.156;5.382;2023-10-31T05:22:04;0.75;;;0.30;;
26042;SDS011;13818;52.156;5.382;2023-10-31T05:24:30;0.25;;;0.20;;
26042;SDS011;13818;52.156;5.382;2023-10-31T05:26:57;0.05;;;0.00;;
26042;SDS011;13818;52.156;5.382;2023-10-31T05:29:23;2.55;;;0.60;;
26042;SDS011;13818;52.156;5.382;2023-10-31T05:31:51;0.30;;;0.20;;
26042;SDS011;13818;52.156;5.382;2023-10-31T05:34:19;2.00;;;0.35;;
26042;SDS011;13818;52.156;5.382;2023-10-31T05:36:46;0.20;;;0.17;;
26042;SDS011;13818;52.156;5.382;2023-10-31T05:39:12;1.13;;;0.65;;
26042;SDS011;13818;52.156;5.382;2023-10-31T05:41:40;0.60;;;0.10;;
26042;SDS011;13818;52.156;5.382;2023-10-31T05:44:06;2.78;;;0.70;;
26042;SDS011;13818;52.156;5.382;2023-10-31T05:46:37;0.47;;;0.30;;
26042;SDS011;13818;52.156;5.382;2023-10-31T05:49:06;0.70;;;0.40;;
26042;SDS011;13818;52.156;5.382;2023-10-31T05:51:32;1.85;;;0.40;;
26042;SDS011;13818;52.156;5.382;2023-10-31T05:54:00;1.83;;;0.52;;
26042;SDS011;13818;52.156;5.382;2023-10-31T05:56:26;1.90;;;0.60;;
26042;SDS011;13818;52.156;5.382;2023-10-31T05:58:53;1.40;;;0.52;;
26042;SDS011;13818;52.156;5.382;2023-10-31T06:01:19;0.65;;;0.40;;
26042;SDS011;13818;52.156;5.382;2023-10-31T06:03:46;0.98;;;0.50;;
26042;SDS011;13818;52.156;5.382;2023-10-31T06:06:13;0.45;;;0.38;;
26042;SDS011;13818;52.156;5.382;2023-10-31T06:08:40;1.50;;;0.60;;
26042;SDS011;13818;52.156;5.382;2023-10-31T06:11:07;1.05;;;0.40;;
26042;SDS011;13818;52.156;5.382;2023-10-31T06:13:34;1.05;;;0.50;;
26042;SDS011;13818;52.156;5.382;2023-10-31T06:16:00;4.80;;;1.23;;
26042;SDS011;13818;52.156;5.382;2023-10-31T06:18:27;1.30;;;0.70;;
26042;SDS011;13818;52.156;5.382;2023-10-31T06:20:54;3.35;;;0.90;;
26042;SDS011;13818;52.156;5.382;2023-10-31T06:23:21;1.67;;;0.70;;
26042;SDS011;13818;52.156;5.382;2023-10-31T06:25:48;2.10;;;0.98;;
26042;SDS011;13818;52.156;5.382;2023-10-31T06:28:14;3.58;;;1.13;;
26042;SDS011;13818;52.156;5.382;2023-10-31T06:30:41;6.30;;;1.23;;
26042;SDS011;13818;52.156;5.382;2023-10-31T06:33:07;2.78;;;1.33;;
26042;SDS011;13818;52.156;5.382;2023-10-31T06:35:35;3.00;;;1.40;;
26042;SDS011;13818;52.156;5.382;2023-10-31T06:38:02;5.55;;;1.50;;
26042;SDS011;13818;52.156;5.382;2023-10-31T06:40:30;4.38;;;1.52;;
26042;SDS011;13818;52.156;5.382;2023-10-31T06:42:56;5.70;;;1.50;;
26042;SDS011;13818;52.156;5.382;2023-10-31T06:45:24;2.70;;;1.40;;
26042;SDS011;13818;52.156;5.382;2023-10-31T06:47:50;3.33;;;1.45;;
26042;SDS011;13818;52.156;5.382;2023-10-31T06:50:17;4.43;;;1.30;;
26042;SDS011;13818;52.156;5.382;2023-10-31T06:52:43;5.35;;;1.83;;
26042;SDS011;13818;52.156;5.382;2023-10-31T06:55:10;3.47;;;1.70;;
26042;SDS011;13818;52.156;5.382;2023-10-31T06:57:37;4.07;;;1.85;;
26042;SDS011;13818;52.156;5.382;2023-10-31T07:00:05;3.22;;;1.13;;
26042;SDS011;13818;52.156;5.382;2023-10-31T07:02:33;2.55;;;1.13;;
26042;SDS011;13818;52.156;5.382;2023-10-31T07:05:00;1.42;;;1.27;;
26042;SDS011;13818;52.156;5.382;2023-10-31T07:07:28;4.00;;;1.20;;
26042;SDS011;13818;52.156;5.382;2023-10-31T07:09:54;2.22;;;1.00;;
26042;SDS011;13818;52.156;5.382;2023-10-31T07:12:21;5.00;;;1.10;;
26042;SDS011;13818;52.156;5.382;2023-10-31T07:14:49;1.98;;;1.02;;
26042;SDS011;13818;52.156;5.382;2023-10-31T07:17:15;2.63;;;0.88;;
26042;SDS011;13818;52.156;5.382;2023-10-31T07:19:41;2.72;;;0.98;;
26042;SDS011;13818;52.156;5.382;2023-10-31T07:22:08;0.90;;;0.50;;
26042;SDS011;13818;52.156;5.382;2023-10-31T07:24:34;0.77;;;0.47;;
26042;SDS011;13818;52.156;5.382;2023-10-31T07:27:01;3.03;;;0.90;;
26042;SDS011;13818;52.156;5.382;2023-10-31T07:29:27;0.68;;;0.30;;
26042;SDS011;13818;52.156;5.382;2023-10-31T07:31:55;1.42;;;0.73;;
26042;SDS011;13818;52.156;5.382;2023-10-31T07:34:21;3.25;;;0.70;;
26042;SDS011;13818;52.156;5.382;2023-10-31T07:36:48;4.82;;;0.77;;
26042;SDS011;13818;52.156;5.382;2023-10-31T07:39:14;0.95;;;0.63;;
26042;SDS011;13818;52.156;5.382;2023-10-31T07:41:41;2.75;;;0.60;;
26042;SDS011;13818;52.156;5.382;2023-10-31T07:44:07;1.63;;;0.77;;
26042;SDS011;13818;52.156;5.382;2023-10-31T07:46:34;1.00;;;0.40;;
26042;SDS011;13818;52.156;5.382;2023-10-31T07:49:02;1.77;;;0.70;;
26042;SDS011;13818;52.156;5.382;2023-10-31T07:51:28;3.20;;;1.30;;
26042;SDS011;13818;52.156;5.382;2023-10-31T07:53:55;1.50;;;0.70;;
26042;SDS011;13818;52.156;5.382;2023-10-31T07:56:23;1.30;;;0.52;;
26042;SDS011;13818;52.156;5.382;2023-10-31T07:58:50;3.65;;;0.60;;
26042;SDS011;13818;52.156;5.382;2023-10-31T08:01:16;2.15;;;0.68;;
26042;SDS011;13818;52.156;5.382;2023-10-31T08:03:43;0.52;;;0.40;;
26042;SDS011;13818;52.156;5.382;2023-10-31T08:06:11;4.63;;;0.90;;
26042;SDS011;13818;52.156;5.382;2023-10-31T08:08:37;1.40;;;0.57;;
26042;SDS011;13818;52.156;5.382;2023-10-31T08:11:06;1.73;;;0.85;;
26042;SDS011;13818;52.156;5.382;2023-10-31T08:13:33;1.83;;;0.80;;
26042;SDS011;13818;52.156;5.382;2023-10-31T08:16:00;3.55;;;0.68;;
26042;SDS011;13818;52.156;5.382;2023-10-31T08:18:26;1.45;;;0.60;;
26042;SDS011;13818;52.156;5.382;2023-10-31T08:20:52;2.15;;;0.73;;
26042;SDS011;13818;52.156;5.382;2023-10-31T08:23:20;1.17;;;0.63;;
26042;SDS011;13818;52.156;5.382;2023-10-31T08:25:47;1.48;;;0.80;;
26042;SDS011;13818;52.156;5.382;2023-10-31T08:28:14;1.48;;;0.57;;
26042;SDS011;13818;52.156;5.382;2023-10-31T08:30:40;1.38;;;0.70;;
26042;SDS011;13818;52.156;5.382;2023-10-31T08:33:06;3.92;;;0.88;;
26042;SDS011;13818;52.156;5.382;2023-10-31T08:35:33;2.13;;;0.93;;
26042;SDS011;13818;52.156;5.382;2023-10-31T08:38:00;2.75;;;0.55;;
26042;SDS011;13818;52.156;5.382;2023-10-31T08:40:28;2.28;;;1.15;;
26042;SDS011;13818;52.156;5.382;2023-10-31T08:42:54;1.90;;;0.80;;
26042;SDS011;13818;52.156;5.382;2023-10-31T08:45:21;2.75;;;1.05;;
26042;SDS011;13818;52.156;5.382;2023-10-31T08:47:47;8.75;;;1.77;;
26042;SDS011;13818;52.156;5.382;2023-10-31T08:50:15;2.80;;;0.90;;
26042;SDS011;13818;52.156;5.382;2023-10-31T08:52:41;2.92;;;0.90;;
26042;SDS011;13818;52.156;5.382;2023-10-31T08:55:08;2.42;;;0.80;;
26042;SDS011;13818;52.156;5.382;2023-10-31T08:57:36;2.20;;;0.70;;
26042;SDS011;13818;52.156;5.382;2023-10-31T09:02:30;4.50;;;0.68;;
26042;SDS011;13818;52.156;5.382;2023-10-31T09:04:56;1.23;;;0.77;;
26042;SDS011;13818;52.156;5.382;2023-10-31T09:07:23;4.25;;;1.27;;
26042;SDS011;13818;52.156;5.382;2023-10-31T09:09:50;1.02;;;0.65;;
26042;SDS011;13818;52.156;5.382;2023-10-31T09:12:17;6.30;;;1.25;;
26042;SDS011;13818;52.156;5.382;2023-10-31T09:14:45;1.95;;;0.80;;
26042;SDS011;13818;52.156;5.382;2023-10-31T09:17:11;1.38;;;0.55;;
26042;SDS011;13818;52.156;5.382;2023-10-31T09:19:38;1.55;;;1.00;;
26042;SDS011;13818;52.156;5.382;2023-10-31T09:22:04;4.28;;;1.20;;
26042;SDS011;13818;52.156;5.382;2023-10-31T09:24:31;1.95;;;0.85;;
26042;SDS011;13818;52.156;5.382;2023-10-31T09:26:57;1.45;;;0.85;;
26042;SDS011;13818;52.156;5.382;2023-10-31T09:29:23;5.22;;;1.02;;
26042;SDS011;13818;52.156;5.382;2023-10-31T09:31:51;3.42;;;0.88;;
26042;SDS011;13818;52.156;5.382;2023-10-31T09:34:18;3.05;;;1.30;;
26042;SDS011;13818;52.156;5.382;2023-10-31T09:36:44;2.67;;;1.02;;
26042;SDS011;13818;52.156;5.382;2023-10-31T09:39:10;2.13;;;0.57;;
26042;SDS011;13818;52.156;5.382;2023-10-31T09:41:37;1.10;;;0.70;;
26042;SDS011;13818;52.156;5.382;2023-10-31T09:44:04;6.18;;;1.33;;
26042;SDS011;13818;52.156;5.382;2023-10-31T09:46:30;1.40;;;0.82;;
26042;SDS011;13818;52.156;5.382;2023-10-31T09:48:58;1.50;;;0.85;;
26042;SDS011;13818;52.156;5.382;2023-10-31T09:51:25;1.52;;;0.65;;
26042;SDS011;13818;52.156;5.382;2023-10-31T09:53:54;2.28;;;0.82;;
26042;SDS011;13818;52.156;5.382;2023-10-31T09:56:21;2.40;;;0.77;;
26042;SDS011;13818;52.156;5.382;2023-10-31T09:58:48;4.93;;;1.13;;
26042;SDS011;13818;52.156;5.382;2023-10-31T10:01:14;5.10;;;1.00;;
26042;SDS011;13818;52.156;5.382;2023-10-31T10:03:41;2.13;;;1.20;;
26042;SDS011;13818;52.156;5.382;2023-10-31T10:06:09;5.80;;;1.30;;
26042;SDS011;13818;52.156;5.382;2023-10-31T10:08:36;3.38;;;1.00;;
26042;SDS011;13818;52.156;5.382;2023-10-31T10:11:03;4.72;;;1.15;;
26042;SDS011;13818;52.156;5.382;2023-10-31T10:13:30;5.28;;;1.05;;
26042;SDS011;13818;52.156;5.382;2023-10-31T10:15:57;7.03;;;1.23;;
26042;SDS011;13818;52.156;5.382;2023-10-31T10:18:24;6.80;;;1.05;;
26042;SDS011;13818;52.156;5.382;2023-10-31T10:20:55;4.45;;;1.35;;
26042;SDS011;13818;52.156;5.382;2023-10-31T10:23:23;3.35;;;1.20;;
26042;SDS011;13818;52.156;5.382;2023-10-31T10:25:50;8.15;;;1.40;;
26042;SDS011;13818;52.156;5.382;2023-10-31T10:28:17;2.53;;;1.38;;
26042;SDS011;13818;52.156;5.382;2023-10-31T10:30:45;1.70;;;1.00;;
26042;SDS011;13818;52.156;5.382;2023-10-31T10:33:12;1.73;;;1.20;;
26042;SDS011;13818;52.156;5.382;2023-10-31T10:35:38;2.88;;;1.30;;
26042;SDS011;13818;52.156;5.382;2023-10-31T10:38:05;7.68;;;1.58;;
26042;SDS011;13818;52.156;5.382;2023-10-31T10:40:37;2.08;;;1.00;;
26042;SDS011;13818;52.156;5.382;2023-10-31T10:43:05;1.95;;;0.95;;
26042;SDS011;13818;52.156;5.382;2023-10-31T10:45:33;5.25;;;1.00;;
26042;SDS011;13818;52.156;5.382;2023-10-31T10:48:01;3.72;;;1.40;;
26042;SDS011;13818;52.156;5.382;2023-10-31T10:50:34;2.63;;;0.90;;
26042;SDS011;13818;52.156;5.382;2023-10-31T10:53:07;2.53;;;0.98;;
26042;SDS011;13818;52.156;5.382;2023-10-31T10:55:43;2.60;;;1.20;;
26042;SDS011;13818;52.156;5.382;2023-10-31T10:58:13;2.25;;;0.98;;
26042;SDS011;13818;52.156;5.382;2023-10-31T11:00:48;2.85;;;1.00;;
26042;SDS011;13818;52.156;5.382;2023-10-31T11:03:16;5.30;;;0.95;;
26042;SDS011;13818;52.156;5.382;2023-10-31T11:05:45;7.88;;;1.40;;
26042;SDS011;13818;52.156;5.382;2023-10-31T11:08:12;1.85;;;1.00;;
26042;SDS011;13818;52.156;5.382;2023-10-31T11:10:40;3.90;;;1.23;;
26042;SDS011;13818;52.156;5.382;2023-10-31T11:13:08;2.38;;;0.70;;
26042;SDS011;13818;52.156;5.382;2023-10-31T11:15:35;1.25;;;0.60;;
26042;SDS011;13818;52.156;5.382;2023-10-31T11:18:04;1.02;;;0.52;;
26042;SDS011;13818;52.156;5.382;2023-10-31T11:20:31;2.80;;;0.52;;
26042;SDS011;13818;52.156;5.382;2023-10-31T11:22:57;2.60;;;1.02;;
26042;SDS011;13818;52.156;5.382;2023-10-31T11:25:25;3.15;;;0.98;;
26042;SDS011;13818;52.156;5.382;2023-10-31T11:27:53;4.32;;;0.77;;
26042;SDS011;13818;52.156;5.382;2023-10-31T11:30:26;3.47;;;0.93;;
26042;SDS011;13818;52.156;5.382;2023-10-31T11:32:54;3.17;;;0.82;;
26042;SDS011;13818;52.156;5.382;2023-10-31T11:35:21;4.43;;;1.15;;
26042;SDS011;13818;52.156;5.382;2023-10-31T11:37:48;4.15;;;1.38;;
26042;SDS011;13818;52.156;5.382;2023-10-31T11:40:19;4.05;;;1.10;;
26042;SDS011;13818;52.156;5.382;2023-10-31T11:42:48;4.47;;;1.50;;
26042;SDS011;13818;52.156;5.382;2023-10-31T11:45:29;2.92;;;0.90;;
26042;SDS011;13818;52.156;5.382;2023-10-31T11:47:59;3.58;;;1.10;;
26042;SDS011;13818;52.156;5.382;2023-10-31T11:50:26;2.90;;;0.95;;
26042;SDS011;13818;52.156;5.382;2023-10-31T11:53:02;4.55;;;0.98;;
26042;SDS011;13818;52.156;5.382;2023-10-31T11:55:31;2.63;;;1.00;;
26042;SDS011;13818;52.156;5.382;2023-10-31T11:58:11;3.13;;;1.48;;
26042;SDS011;13818;52.156;5.382;2023-10-31T12:00:41;4.28;;;1.15;;
26042;SDS011;13818;52.156;5.382;2023-10-31T12:03:09;2.55;;;0.98;;
26042;SDS011;13818;52.156;5.382;2023-10-31T12:05:36;3.78;;;1.13;;
26042;SDS011;13818;52.156;5.382;2023-10-31T12:08:02;2.35;;;1.20;;
26042;SDS011;13818;52.156;5.382;2023-10-31T12:10:29;2.40;;;1.10;;
26042;SDS011;13818;52.156;5.382;2023-10-31T12:12:56;2.97;;;1.02;;
26042;SDS011;13818;52.156;5.382;2023-10-31T12:15:23;2.15;;;0.98;;
26042;SDS011;13818;52.156;5.382;2023-10-31T12:17:51;2.92;;;0.90;;
26042;SDS011;13818;52.156;5.382;2023-10-31T12:20:18;5.72;;;2.10;;
26042;SDS011;13818;52.156;5.382;2023-10-31T12:22:44;3.85;;;1.90;;
26042;SDS011;13818;52.156;5.382;2023-10-31T12:25:11;3.60;;;1.65;;
26042;SDS011;13818;52.156;5.382;2023-10-31T12:27:44;3.97;;;1.98;;
26042;SDS011;13818;52.156;5.382;2023-10-31T12:30:11;3.20;;;1.85;;
26042;SDS011;13818;52.156;5.382;2023-10-31T12:32:39;3.55;;;1.80;;
26042;SDS011;13818;52.156;5.382;2023-10-31T12:37:40;5.18;;;3.05;;
26042;SDS011;13818;52.156;5.382;2023-10-31T12:40:09;7.97;;;3.80;;
26042;SDS011;13818;52.156;5.382;2023-10-31T12:42:36;7.32;;;4.43;;
26042;SDS011;13818;52.156;5.382;2023-10-31T12:45:03;12.00;;;4.55;;
26042;SDS011;13818;52.156;5.382;2023-10-31T12:47:31;10.15;;;4.75;;
26042;SDS011;13818;52.156;5.382;2023-10-31T12:50:07;9.30;;;4.50;;
26042;SDS011;13818;52.156;5.382;2023-10-31T12:52:47;10.60;;;4.88;;
26042;SDS011;13818;52.156;5.382;2023-10-31T12:55:16;9.73;;;4.13;;
26042;SDS011;13818;52.156;5.382;2023-10-31T12:57:44;13.57;;;4.13;;
26042;SDS011;13818;52.156;5.382;2023-10-31T13:00:12;12.98;;;5.28;;
26042;SDS011;13818;52.156;5.382;2023-10-31T13:02:41;12.45;;;5.20;;
26042;SDS011;13818;52.156;5.382;2023-10-31T13:05:10;11.38;;;4.82;;
26042;SDS011;13818;52.156;5.382;2023-10-31T13:07:38;13.45;;;5.38;;
26042;SDS011;13818;52.156;5.382;2023-10-31T13:10:05;9.80;;;4.72;;
26042;SDS011;13818;52.156;5.382;2023-10-31T13:12:34;9.05;;;4.65;;
26042;SDS011;13818;52.156;5.382;2023-10-31T13:15:01;11.77;;;5.40;;
26042;SDS011;13818;52.156;5.382;2023-10-31T13:17:27;10.90;;;5.25;;
26042;SDS011;13818;52.156;5.382;2023-10-31T13:19:56;14.40;;;5.60;;
26042;SDS011;13818;52.156;5.382;2023-10-31T13:22:24;12.75;;;5.30;;
26042;SDS011;13818;52.156;5.382;2023-10-31T13:24:50;15.95;;;6.30;;
26042;SDS011;13818;52.156;5.382;2023-10-31T13:27:17;16.35;;;6.13;;
26042;SDS011;13818;52.156;5.382;2023-10-31T13:29:44;16.35;;;6.72;;
26042;SDS011;13818;52.156;5.382;2023-10-31T13:32:10;15.35;;;5.93;;
26042;SDS011;13818;52.156;5.382;2023-10-31T13:34:37;15.00;;;6.22;;
26042;SDS011;13818;52.156;5.382;2023-10-31T13:37:03;16.30;;;6.93;;
26042;SDS011;13818;52.156;5.382;2023-10-31T13:39:31;14.05;;;6.45;;
26042;SDS011;13818;52.156;5.382;2023-10-31T13:41:57;15.88;;;6.57;;
26042;SDS011;13818;52.156;5.382;2023-10-31T13:44:24;17.80;;;6.75;;
26042;SDS011;13818;52.156;5.382;2023-10-31T13:46:50;16.02;;;6.78;;
26042;SDS011;13818;52.156;5.382;2023-10-31T13:49:17;18.02;;;6.70;;
26042;SDS011;13818;52.156;5.382;2023-10-31T13:51:43;13.95;;;6.65;;
26042;SDS011;13818;52.156;5.382;2023-10-31T13:54:09;16.92;;;6.30;;
26042;SDS011;13818;52.156;5.382;2023-10-31T13:56:37;14.32;;;6.38;;
26042;SDS011;13818;52.156;5.382;2023-10-31T13:59:04;10.50;;;4.85;;
26042;SDS011;13818;52.156;5.382;2023-10-31T14:01:30;16.65;;;5.72;;
26042;SDS011;13818;52.156;5.382;2023-10-31T14:03:57;12.80;;;5.20;;
26042;SDS011;13818;52.156;5.382;2023-10-31T14:06:23;11.95;;;5.40;;
26042;SDS011;13818;52.156;5.382;2023-10-31T14:08:55;10.35;;;4.63;;
26042;SDS011;13818;52.156;5.382;2023-10-31T14:11:21;10.65;;;5.18;;
26042;SDS011;13818;52.156;5.382;2023-10-31T14:13:49;10.32;;;4.72;;
26042;SDS011;13818;52.156;5.382;2023-10-31T14:16:17;11.38;;;4.82;;
26042;SDS011;13818;52.156;5.382;2023-10-31T14:18:43;10.10;;;3.83;;
26042;SDS011;13818;52.156;5.382;2023-10-31T14:21:11;9.27;;;4.15;;
26042;SDS011;13818;52.156;5.382;2023-10-31T14:23:37;14.32;;;5.10;;
26042;SDS011;13818;52.156;5.382;2023-10-31T14:26:03;10.80;;;5.22;;
26042;SDS011;13818;52.156;5.382;2023-10-31T14:28:30;10.05;;;4.57;;
26042;SDS011;13818;52.156;5.382;2023-10-31T14:30:58;11.82;;;4.35;;
26042;SDS011;13818;52.156;5.382;2023-10-31T14:33:25;10.43;;;4.38;;
26042;SDS011;13818;52.156;5.382;2023-10-31T14:35:51;9.43;;;5.03;;
26042;SDS011;13818;52.156;5.382;2023-10-31T14:38:18;11.15;;;4.47;;
26042;SDS011;13818;52.156;5.382;2023-10-31T14:40:44;13.38;;;4.78;;
26042;SDS011;13818;52.156;5.382;2023-10-31T14:43:10;9.90;;;4.43;;
26042;SDS011;13818;52.156;5.382;2023-10-31T14:45:43;9.13;;;4.43;;
26042;SDS011;13818;52.156;5.382;2023-10-31T14:48:10;11.77;;;5.65;;
26042;SDS011;13818;52.156;5.382;2023-10-31T14:50:37;10.98;;;5.38;;